sensor_id;sensor_type;location;lat;lon;timestamp;P1;durP1;ratioP1;P2;durP2;ratioP2
37517;SDS011;23366;52.498;13.446;2023-06-26T00:01:12;9.27;;;6.45;;
37517;SDS011;23366;52.498;13.446;2023-06-26T00:03:37;12.30;;;6.65;;
37517;SDS011;23366;52.498;13.446;2023-06-26T00:06:03;10.88;;;7.15;;
37517;SDS011;23366;52.498;13.446;2023-06-26T00:08:28;8.98;;;6.63;;
37517;SDS011;23366;52.498;13.446;2023-06-26T00:10:54;10.68;;;6.18;;
37517;SDS011;23366;52.498;13.446;2023-06-26T00:13:19;10.18;;;6.90;;
37517;SDS011;23366;52.498;13.446;2023-06-26T00:15:46;10.60;;;6.63;;
37517;SDS011;23366;52.498;13.446;2023-06-26T00:18:11;8.35;;;6.88;;
37517;SDS011;23366;52.498;13.446;2023-06-26T00:20:37;10.40;;;6.80;;
37517;SDS011;23366;52.498;13.446;2023-06-26T00:23:02;11.77;;;6.82;;
37517;SDS011;23366;52.498;13.446;2023-06-26T00:25:33;11.43;;;7.30;;
37517;SDS011;23366;52.498;13.446;2023-06-26T00:27:58;10.63;;;6.88;;
37517;SDS011;23366;52.498;13.446;2023-06-26T00:30:24;12.55;;;8.40;;
37517;SDS011;23366;52.498;13.446;2023-06-26T00:32:50;11.05;;;6.90;;
37517;SDS011;23366;52.498;13.446;2023-06-26T00:35:16;10.57;;;7.22;;
37517;SDS011;23366;52.498;13.446;2023-06-26T00:37:42;10.20;;;6.88;;
37517;SDS011;23366;52.498;13.446;2023-06-26T00:40:07;10.77;;;6.88;;
37517;SDS011;23366;52.498;13.446;2023-06-26T00:42:34;12.02;;;7.57;;
37517;SDS011;23366;52.498;13.446;2023-06-26T00:44:59;13.40;;;7.60;;
37517;SDS011;23366;52.498;13.446;2023-06-26T00:47:25;9.63;;;6.88;;
37517;SDS011;23366;52.498;13.446;2023-06-26T00:49:52;11.52;;;7.85;;
37517;SDS011;23366;52.498;13.446;2023-06-26T00:52:19;12.00;;;6.80;;
37517;SDS011;23366;52.498;13.446;2023-06-26T00:54:45;9.15;;;6.45;;
37517;SDS011;23366;52.498;13.446;2023-06-26T00:57:11;8.30;;;6.40;;
37517;SDS011;23366;52.498;13.446;2023-06-26T00:59:36;10.63;;;6.72;;
37517;SDS011;23366;52.498;13.446;2023-06-26T01:02:03;9.68;;;6.57;;
37517;SDS011;23366;52.498;13.446;2023-06-26T01:04:28;13.13;;;7.30;;
37517;SDS011;23366;52.498;13.446;2023-06-26T01:06:57;12.20;;;7.28;;
37517;SDS011;23366;52.498;13.446;2023-06-26T01:09:23;9.65;;;7.28;;
37517;SDS011;23366;52.498;13.446;2023-06-26T01:11:50;11.70;;;7.68;;
37517;SDS011;23366;52.498;13.446;2023-06-26T01:14:15;11.52;;;7.15;;
37517;SDS011;23366;52.498;13.446;2023-06-26T01:16:41;10.48;;;7.13;;
37517;SDS011;23366;52.498;13.446;2023-06-26T01:19:18;10.02;;;6.38;;
37517;SDS011;23366;52.498;13.446;2023-06-26T01:21:58;10.05;;;8.02;;
37517;SDS011;23366;52.498;13.446;2023-06-26T01:24:39;9.43;;;6.72;;
37517;SDS011;23366;52.498;13.446;2023-06-26T01:27:10;10.40;;;7.57;;
37517;SDS011;23366;52.498;13.446;2023-06-26T01:29:37;13.40;;;8.73;;
37517;SDS011;23366;52.498;13.446;2023-06-26T01:32:03;8.52;;;6.78;;
37517;SDS011;23366;52.498;13.446;2023-06-26T01:34:30;13.88;;;7.20;;
37517;SDS011;23366;52.498;13.446;2023-06-26T01:36:56;12.52;;;7.78;;
37517;SDS011;23366;52.498;13.446;2023-06-26T01:39:21;9.63;;;6.68;;
37517;SDS011;23366;52.498;13.446;2023-06-26T01:41:47;12.15;;;8.00;;
37517;SDS011;23366;52.498;13.446;2023-06-26T01:44:28;11.52;;;7.95;;
37517;SDS011;23366;52.498;13.446;2023-06-26T01:47:00;10.25;;;7.78;;
37517;SDS011;23366;52.498;13.446;2023-06-26T01:49:41;9.82;;;6.95;;
37517;SDS011;23366;52.498;13.446;2023-06-26T01:54:46;9.38;;;7.13;;
37517;SDS011;23366;52.498;13.446;2023-06-26T01:57:14;14.20;;;8.13;;
37517;SDS011;23366;52.498;13.446;2023-06-26T01:59:43;13.15;;;8.88;;
37517;SDS011;23366;52.498;13.446;2023-06-26T02:02:10;12.95;;;8.23;;
37517;SDS011;23366;52.498;13.446;2023-06-26T02:04:36;11.95;;;7.70;;
37517;SDS011;23366;52.498;13.446;2023-06-26T02:07:02;9.40;;;7.07;;
37517;SDS011;23366;52.498;13.446;2023-06-26T02:09:31;10.02;;;7.75;;
37517;SDS011;23366;52.498;13.446;2023-06-26T02:11:56;10.70;;;7.18;;
37517;SDS011;23366;52.498;13.446;2023-06-26T02:14:21;11.30;;;7.50;;
37517;SDS011;23366;52.498;13.446;2023-06-26T02:16:47;9.55;;;7.30;;
37517;SDS011;23366;52.498;13.446;2023-06-26T02:19:12;11.73;;;7.07;;
37517;SDS011;23366;52.498;13.446;2023-06-26T02:21:46;9.15;;;7.25;;
37517;SDS011;23366;52.498;13.446;2023-06-26T02:24:14;11.15;;;7.88;;
37517;SDS011;23366;52.498;13.446;2023-06-26T02:26:40;9.48;;;7.10;;
37517;SDS011;23366;52.498;13.446;2023-06-26T02:29:05;11.30;;;8.18;;
37517;SDS011;23366;52.498;13.446;2023-06-26T02:31:31;13.35;;;7.68;;
37517;SDS011;23366;52.498;13.446;2023-06-26T02:33:56;12.90;;;8.73;;
37517;SDS011;23366;52.498;13.446;2023-06-26T02:36:22;10.95;;;7.15;;
37517;SDS011;23366;52.498;13.446;2023-06-26T02:38:47;11.23;;;7.90;;
37517;SDS011;23366;52.498;13.446;2023-06-26T02:41:13;11.98;;;8.00;;
37517;SDS011;23366;52.498;13.446;2023-06-26T02:43:38;16.77;;;9.52;;
37517;SDS011;23366;52.498;13.446;2023-06-26T02:46:04;16.70;;;9.32;;
37517;SDS011;23366;52.498;13.446;2023-06-26T02:48:29;12.10;;;8.40;;
37517;SDS011;23366;52.498;13.446;2023-06-26T02:50:55;14.63;;;8.88;;
37517;SDS011;23366;52.498;13.446;2023-06-26T02:53:20;10.38;;;8.07;;
37517;SDS011;23366;52.498;13.446;2023-06-26T02:55:46;12.57;;;8.43;;
37517;SDS011;23366;52.498;13.446;2023-06-26T02:58:12;10.52;;;8.10;;
37517;SDS011;23366;52.498;13.446;2023-06-26T03:00:38;11.95;;;8.65;;
37517;SDS011;23366;52.498;13.446;2023-06-26T03:03:06;8.80;;;7.72;;
37517;SDS011;23366;52.498;13.446;2023-06-26T03:05:32;11.77;;;8.18;;
37517;SDS011;23366;52.498;13.446;2023-06-26T03:07:58;13.55;;;9.43;;
37517;SDS011;23366;52.498;13.446;2023-06-26T03:10:23;15.20;;;8.90;;
37517;SDS011;23366;52.498;13.446;2023-06-26T03:12:49;15.00;;;8.60;;
37517;SDS011;23366;52.498;13.446;2023-06-26T03:15:14;11.70;;;8.70;;
37517;SDS011;23366;52.498;13.446;2023-06-26T03:17:41;12.88;;;8.57;;
37517;SDS011;23366;52.498;13.446;2023-06-26T03:20:07;16.17;;;10.25;;
37517;SDS011;23366;52.498;13.446;2023-06-26T03:22:33;13.90;;;9.40;;
37517;SDS011;23366;52.498;13.446;2023-06-26T03:24:59;13.68;;;9.38;;
37517;SDS011;23366;52.498;13.446;2023-06-26T03:27:24;15.18;;;9.63;;
37517;SDS011;23366;52.498;13.446;2023-06-26T03:29:51;12.05;;;8.63;;
37517;SDS011;23366;52.498;13.446;2023-06-26T03:32:17;12.30;;;8.77;;
37517;SDS011;23366;52.498;13.446;2023-06-26T03:34:43;11.20;;;8.25;;
37517;SDS011;23366;52.498;13.446;2023-06-26T03:37:08;12.43;;;8.60;;
37517;SDS011;23366;52.498;13.446;2023-06-26T03:39:34;17.52;;;9.27;;
37517;SDS011;23366;52.498;13.446;2023-06-26T03:41:59;11.73;;;9.02;;
37517;SDS011;23366;52.498;13.446;2023-06-26T03:44:26;16.30;;;9.80;;
37517;SDS011;23366;52.498;13.446;2023-06-26T03:46:52;14.55;;;10.35;;
37517;SDS011;23366;52.498;13.446;2023-06-26T03:49:17;12.57;;;8.55;;
37517;SDS011;23366;52.498;13.446;2023-06-26T03:51:43;13.90;;;8.25;;
37517;SDS011;23366;52.498;13.446;2023-06-26T03:54:09;11.25;;;8.50;;
37517;SDS011;23366;52.498;13.446;2023-06-26T03:56:35;18.27;;;10.13;;
37517;SDS011;23366;52.498;13.446;2023-06-26T03:59:01;13.82;;;9.30;;
37517;SDS011;23366;52.498;13.446;2023-06-26T04:01:26;12.93;;;8.57;;
37517;SDS011;23366;52.498;13.446;2023-06-26T04:03:52;13.88;;;10.23;;
37517;SDS011;23366;52.498;13.446;2023-06-26T04:06:18;11.88;;;7.82;;
37517;SDS011;23366;52.498;13.446;2023-06-26T04:08:43;13.00;;;8.23;;
37517;SDS011;23366;52.498;13.446;2023-06-26T04:11:09;11.90;;;9.00;;
37517;SDS011;23366;52.498;13.446;2023-06-26T04:13:34;9.98;;;7.40;;
37517;SDS011;23366;52.498;13.446;2023-06-26T04:16:00;15.93;;;10.15;;
37517;SDS011;23366;52.498;13.446;2023-06-26T04:18:26;14.75;;;9.40;;
37517;SDS011;23366;52.498;13.446;2023-06-26T04:21:08;15.95;;;8.85;;
37517;SDS011;23366;52.498;13.446;2023-06-26T04:23:36;12.85;;;7.88;;
37517;SDS011;23366;52.498;13.446;2023-06-26T04:26:02;10.75;;;8.10;;
37517;SDS011;23366;52.498;13.446;2023-06-26T04:28:28;12.10;;;8.40;;
37517;SDS011;23366;52.498;13.446;2023-06-26T04:30:53;13.15;;;8.75;;
37517;SDS011;23366;52.498;13.446;2023-06-26T04:33:19;9.85;;;7.65;;
37517;SDS011;23366;52.498;13.446;2023-06-26T04:35:47;10.18;;;8.15;;
37517;SDS011;23366;52.498;13.446;2023-06-26T04:38:15;14.03;;;9.60;;
37517;SDS011;23366;52.498;13.446;2023-06-26T04:40:41;12.15;;;9.38;;
37517;SDS011;23366;52.498;13.446;2023-06-26T04:43:06;12.43;;;8.02;;
37517;SDS011;23366;52.498;13.446;2023-06-26T04:45:32;12.60;;;8.68;;
37517;SDS011;23366;52.498;13.446;2023-06-26T04:47:57;10.50;;;8.18;;
37517;SDS011;23366;52.498;13.446;2023-06-26T04:50:25;12.40;;;8.88;;
37517;SDS011;23366;52.498;13.446;2023-06-26T04:52:51;10.93;;;8.57;;
37517;SDS011;23366;52.498;13.446;2023-06-26T04:55:17;11.65;;;8.55;;
37517;SDS011;23366;52.498;13.446;2023-06-26T04:57:42;13.40;;;8.75;;
37517;SDS011;23366;52.498;13.446;2023-06-26T05:00:08;11.80;;;7.78;;
37517;SDS011;23366;52.498;13.446;2023-06-26T05:02:36;11.35;;;7.85;;
37517;SDS011;23366;52.498;13.446;2023-06-26T05:05:01;9.52;;;7.32;;
37517;SDS011;23366;52.498;13.446;2023-06-26T05:07:27;9.60;;;7.72;;
37517;SDS011;23366;52.498;13.446;2023-06-26T05:09:52;13.32;;;7.32;;
37517;SDS011;23366;52.498;13.446;2023-06-26T05:12:18;10.50;;;7.40;;
37517;SDS011;23366;52.498;13.446;2023-06-26T05:14:43;10.73;;;7.82;;
37517;SDS011;23366;52.498;13.446;2023-06-26T05:17:10;12.05;;;7.18;;
37517;SDS011;23366;52.498;13.446;2023-06-26T05:19:35;11.70;;;7.80;;
37517;SDS011;23366;52.498;13.446;2023-06-26T05:22:01;8.82;;;6.57;;
37517;SDS011;23366;52.498;13.446;2023-06-26T05:24:31;11.48;;;7.15;;
37517;SDS011;23366;52.498;13.446;2023-06-26T05:26:57;10.48;;;7.63;;
37517;SDS011;23366;52.498;13.446;2023-06-26T05:29:23;10.43;;;6.40;;
37517;SDS011;23366;52.498;13.446;2023-06-26T05:31:49;8.32;;;6.50;;
37517;SDS011;23366;52.498;13.446;2023-06-26T05:34:16;9.88;;;6.53;;
37517;SDS011;23366;52.498;13.446;2023-06-26T05:36:47;8.32;;;6.55;;
37517;SDS011;23366;52.498;13.446;2023-06-26T05:39:16;10.80;;;6.20;;
37517;SDS011;23366;52.498;13.446;2023-06-26T05:41:43;9.25;;;6.45;;
37517;SDS011;23366;52.498;13.446;2023-06-26T05:44:09;9.50;;;7.10;;
37517;SDS011;23366;52.498;13.446;2023-06-26T05:46:35;8.80;;;6.72;;
37517;SDS011;23366;52.498;13.446;2023-06-26T05:49:00;9.15;;;6.40;;
37517;SDS011;23366;52.498;13.446;2023-06-26T05:51:27;10.68;;;6.68;;
37517;SDS011;23366;52.498;13.446;2023-06-26T05:53:53;9.02;;;5.82;;
37517;SDS011;23366;52.498;13.446;2023-06-26T05:56:18;8.85;;;5.95;;
37517;SDS011;23366;52.498;13.446;2023-06-26T05:58:45;8.02;;;5.22;;
37517;SDS011;23366;52.498;13.446;2023-06-26T06:01:11;9.43;;;5.18;;
37517;SDS011;23366;52.498;13.446;2023-06-26T06:03:36;5.88;;;4.97;;
37517;SDS011;23366;52.498;13.446;2023-06-26T06:06:03;7.35;;;4.97;;
37517;SDS011;23366;52.498;13.446;2023-06-26T06:08:29;6.63;;;4.72;;
37517;SDS011;23366;52.498;13.446;2023-06-26T06:10:54;6.57;;;4.68;;
37517;SDS011;23366;52.498;13.446;2023-06-26T06:13:20;6.65;;;5.10;;
37517;SDS011;23366;52.498;13.446;2023-06-26T06:15:45;5.32;;;4.20;;
37517;SDS011;23366;52.498;13.446;2023-06-26T06:18:13;9.13;;;5.10;;
37517;SDS011;23366;52.498;13.446;2023-06-26T06:20:38;6.80;;;3.83;;
37517;SDS011;23366;52.498;13.446;2023-06-26T06:23:06;4.90;;;3.92;;
37517;SDS011;23366;52.498;13.446;2023-06-26T06:25:32;8.32;;;4.25;;
37517;SDS011;23366;52.498;13.446;2023-06-26T06:27:57;4.78;;;3.63;;
37517;SDS011;23366;52.498;13.446;2023-06-26T06:30:23;5.18;;;3.50;;
37517;SDS011;23366;52.498;13.446;2023-06-26T06:32:48;4.85;;;3.60;;
37517;SDS011;23366;52.498;13.446;2023-06-26T06:35:17;4.47;;;3.70;;
37517;SDS011;23366;52.498;13.446;2023-06-26T06:37:43;4.47;;;2.95;;
37517;SDS011;23366;52.498;13.446;2023-06-26T06:40:09;3.60;;;2.33;;
37517;SDS011;23366;52.498;13.446;2023-06-26T06:42:35;4.70;;;3.30;;
37517;SDS011;23366;52.498;13.446;2023-06-26T06:45:02;4.18;;;2.90;;
37517;SDS011;23366;52.498;13.446;2023-06-26T06:47:29;3.85;;;2.75;;
37517;SDS011;23366;52.498;13.446;2023-06-26T06:49:54;3.28;;;2.97;;
37517;SDS011;23366;52.498;13.446;2023-06-26T06:52:20;3.75;;;2.80;;
37517;SDS011;23366;52.498;13.446;2023-06-26T06:54:55;3.35;;;2.70;;
37517;SDS011;23366;52.498;13.446;2023-06-26T06:57:30;2.70;;;2.20;;
37517;SDS011;23366;52.498;13.446;2023-06-26T06:59:55;3.78;;;2.25;;
37517;SDS011;23366;52.498;13.446;2023-06-26T07:02:21;2.67;;;2.13;;
37517;SDS011;23366;52.498;13.446;2023-06-26T07:04:46;2.67;;;2.08;;
37517;SDS011;23366;52.498;13.446;2023-06-26T07:07:12;2.67;;;1.92;;
37517;SDS011;23366;52.498;13.446;2023-06-26T07:09:38;3.55;;;2.55;;
37517;SDS011;23366;52.498;13.446;2023-06-26T07:12:04;2.55;;;2.17;;
37517;SDS011;23366;52.498;13.446;2023-06-26T07:14:30;3.35;;;2.72;;
37517;SDS011;23366;52.498;13.446;2023-06-26T07:16:55;2.50;;;2.28;;
37517;SDS011;23366;52.498;13.446;2023-06-26T07:19:21;4.72;;;2.83;;
37517;SDS011;23366;52.498;13.446;2023-06-26T07:21:46;3.38;;;2.88;;
37517;SDS011;23366;52.498;13.446;2023-06-26T07:24:12;2.80;;;2.40;;
37517;SDS011;23366;52.498;13.446;2023-06-26T07:26:37;3.70;;;2.08;;
37517;SDS011;23366;52.498;13.446;2023-06-26T07:29:03;2.75;;;1.92;;
37517;SDS011;23366;52.498;13.446;2023-06-26T07:31:29;2.42;;;1.83;;
37517;SDS011;23366;52.498;13.446;2023-06-26T07:33:54;2.70;;;1.98;;
37517;SDS011;23366;52.498;13.446;2023-06-26T07:36:20;1.75;;;1.65;;
37517;SDS011;23366;52.498;13.446;2023-06-26T07:38:45;2.92;;;2.30;;
37517;SDS011;23366;52.498;13.446;2023-06-26T07:41:11;4.63;;;1.83;;
37517;SDS011;23366;52.498;13.446;2023-06-26T07:43:36;2.78;;;2.20;;
37517;SDS011;23366;52.498;13.446;2023-06-26T07:46:02;2.03;;;1.80;;
37517;SDS011;23366;52.498;13.446;2023-06-26T07:48:27;1.98;;;1.70;;
37517;SDS011;23366;52.498;13.446;2023-06-26T07:50:52;3.08;;;2.22;;
37517;SDS011;23366;52.498;13.446;2023-06-26T07:53:18;1.80;;;1.70;;
37517;SDS011;23366;52.498;13.446;2023-06-26T07:55:44;4.80;;;1.83;;
37517;SDS011;23366;52.498;13.446;2023-06-26T07:58:09;2.30;;;2.05;;
37517;SDS011;23366;52.498;13.446;2023-06-26T08:00:35;1.70;;;1.60;;
37517;SDS011;23366;52.498;13.446;2023-06-26T08:03:00;3.42;;;2.05;;
37517;SDS011;23366;52.498;13.446;2023-06-26T08:05:26;2.80;;;1.70;;
37517;SDS011;23366;52.498;13.446;2023-06-26T08:07:51;2.35;;;2.15;;
37517;SDS011;23366;52.498;13.446;2023-06-26T08:10:17;3.15;;;2.33;;
37517;SDS011;23366;52.498;13.446;2023-06-26T08:12:42;1.95;;;1.75;;
37517;SDS011;23366;52.498;13.446;2023-06-26T08:15:10;5.22;;;2.28;;
37517;SDS011;23366;52.498;13.446;2023-06-26T08:17:36;1.98;;;1.85;;
37517;SDS011;23366;52.498;13.446;2023-06-26T08:20:03;10.27;;;1.63;;
37517;SDS011;23366;52.498;13.446;2023-06-26T08:22:29;1.85;;;1.75;;
37517;SDS011;23366;52.498;13.446;2023-06-26T08:24:55;1.70;;;1.60;;
37517;SDS011;23366;52.498;13.446;2023-06-26T08:27:21;1.83;;;1.58;;
37517;SDS011;23366;52.498;13.446;2023-06-26T08:29:46;1.75;;;1.52;;
37517;SDS011;23366;52.498;13.446;2023-06-26T08:32:12;1.60;;;1.50;;
37517;SDS011;23366;52.498;13.446;2023-06-26T08:34:37;1.77;;;1.58;;
37517;SDS011;23366;52.498;13.446;2023-06-26T08:37:03;2.25;;;1.73;;
37517;SDS011;23366;52.498;13.446;2023-06-26T08:39:28;2.22;;;2.03;;
37517;SDS011;23366;52.498;13.446;2023-06-26T08:41:54;1.85;;;1.40;;
37517;SDS011;23366;52.498;13.446;2023-06-26T08:44:19;1.60;;;1.50;;
37517;SDS011;23366;52.498;13.446;2023-06-26T08:46:49;2.30;;;1.65;;
37517;SDS011;23366;52.498;13.446;2023-06-26T08:49:28;2.25;;;1.50;;
37517;SDS011;23366;52.498;13.446;2023-06-26T08:52:02;1.80;;;1.35;;
37517;SDS011;23366;52.498;13.446;2023-06-26T08:54:36;2.47;;;1.63;;
37517;SDS011;23366;52.498;13.446;2023-06-26T08:57:09;1.85;;;1.60;;
37517;SDS011;23366;52.498;13.446;2023-06-26T08:59:36;1.60;;;1.45;;
37517;SDS011;23366;52.498;13.446;2023-06-26T09:02:01;4.00;;;1.88;;
37517;SDS011;23366;52.498;13.446;2023-06-26T09:04:27;1.83;;;1.55;;
37517;SDS011;23366;52.498;13.446;2023-06-26T09:06:53;1.52;;;1.20;;
37517;SDS011;23366;52.498;13.446;2023-06-26T09:09:18;1.55;;;1.40;;
37517;SDS011;23366;52.498;13.446;2023-06-26T09:11:45;1.25;;;1.02;;
37517;SDS011;23366;52.498;13.446;2023-06-26T09:14:11;2.42;;;1.95;;
37517;SDS011;23366;52.498;13.446;2023-06-26T09:16:41;1.98;;;1.52;;
37517;SDS011;23366;52.498;13.446;2023-06-26T09:21:37;2.08;;;1.42;;
37517;SDS011;23366;52.498;13.446;2023-06-26T09:24:04;1.73;;;1.63;;
37517;SDS011;23366;52.498;13.446;2023-06-26T09:26:32;2.23;;;1.37;;
37517;SDS011;23366;52.498;13.446;2023-06-26T09:28:59;1.80;;;1.40;;
37517;SDS011;23366;52.498;13.446;2023-06-26T09:31:25;1.85;;;1.65;;
37517;SDS011;23366;52.498;13.446;2023-06-26T09:33:51;2.42;;;1.80;;
37517;SDS011;23366;52.498;13.446;2023-06-26T09:36:23;2.13;;;1.50;;
37517;SDS011;23366;52.498;13.446;2023-06-26T09:38:50;2.22;;;1.65;;
37517;SDS011;23366;52.498;13.446;2023-06-26T09:41:16;2.45;;;1.67;;
37517;SDS011;23366;52.498;13.446;2023-06-26T09:43:48;2.45;;;1.63;;
37517;SDS011;23366;52.498;13.446;2023-06-26T09:46:15;1.90;;;1.30;;
37517;SDS011;23366;52.498;13.446;2023-06-26T09:48:42;2.47;;;1.75;;
37517;SDS011;23366;52.498;13.446;2023-06-26T09:51:08;3.83;;;1.40;;
37517;SDS011;23366;52.498;13.446;2023-06-26T09:53:35;2.33;;;1.85;;
37517;SDS011;23366;52.498;13.446;2023-06-26T09:56:08;2.65;;;1.92;;
37517;SDS011;23366;52.498;13.446;2023-06-26T09:58:44;3.63;;;2.10;;
37517;SDS011;23366;52.498;13.446;2023-06-26T10:01:09;3.75;;;1.90;;
37517;SDS011;23366;52.498;13.446;2023-06-26T10:03:35;2.20;;;2.00;;
37517;SDS011;23366;52.498;13.446;2023-06-26T10:06:01;3.33;;;2.35;;
37517;SDS011;23366;52.498;13.446;2023-06-26T10:08:27;2.53;;;1.92;;
37517;SDS011;23366;52.498;13.446;2023-06-26T10:10:54;1.98;;;1.80;;
37517;SDS011;23366;52.498;13.446;2023-06-26T10:13:22;3.45;;;2.40;;
37517;SDS011;23366;52.498;13.446;2023-06-26T10:15:52;4.00;;;1.77;;
37517;SDS011;23366;52.498;13.446;2023-06-26T10:18:20;3.78;;;1.95;;
37517;SDS011;23366;52.498;13.446;2023-06-26T10:20:49;8.85;;;2.95;;
37517;SDS011;23366;52.498;13.446;2023-06-26T10:23:16;2.85;;;1.90;;
37517;SDS011;23366;52.498;13.446;2023-06-26T10:25:44;4.32;;;2.00;;
37517;SDS011;23366;52.498;13.446;2023-06-26T10:28:13;3.03;;;2.25;;
37517;SDS011;23366;52.498;13.446;2023-06-26T10:30:41;3.03;;;2.38;;
37517;SDS011;23366;52.498;13.446;2023-06-26T10:33:08;2.75;;;2.05;;
37517;SDS011;23366;52.498;13.446;2023-06-26T10:35:40;3.33;;;2.25;;
37517;SDS011;23366;52.498;13.446;2023-06-26T10:38:12;4.05;;;2.05;;
37517;SDS011;23366;52.498;13.446;2023-06-26T10:40:41;2.70;;;1.90;;
37517;SDS011;23366;52.498;13.446;2023-06-26T10:43:08;3.60;;;2.38;;
37517;SDS011;23366;52.498;13.446;2023-06-26T10:45:35;2.35;;;1.85;;
37517;SDS011;23366;52.498;13.446;2023-06-26T10:48:01;2.90;;;2.10;;
37517;SDS011;23366;52.498;13.446;2023-06-26T10:50:28;2.13;;;1.58;;
37517;SDS011;23366;52.498;13.446;2023-06-26T10:58:31;2.88;;;2.00;;
37517;SDS011;23366;52.498;13.446;2023-06-26T11:04:06;2.35;;;2.10;;
37517;SDS011;23366;52.498;13.446;2023-06-26T11:06:33;1.90;;;1.48;;
37517;SDS011;23366;52.498;13.446;2023-06-26T11:09:01;3.30;;;2.17;;
37517;SDS011;23366;52.498;13.446;2023-06-26T11:16:43;3.28;;;1.90;;
37517;SDS011;23366;52.498;13.446;2023-06-26T11:19:09;1.75;;;1.65;;
37517;SDS011;23366;52.498;13.446;2023-06-26T11:21:35;4.32;;;1.88;;
37517;SDS011;23366;52.498;13.446;2023-06-26T11:24:08;3.45;;;2.42;;
37517;SDS011;23366;52.498;13.446;2023-06-26T11:26:37;2.42;;;2.22;;
37517;SDS011;23366;52.498;13.446;2023-06-26T11:29:04;3.05;;;2.13;;
37517;SDS011;23366;52.498;13.446;2023-06-26T11:31:36;5.15;;;2.45;;
37517;SDS011;23366;52.498;13.446;2023-06-26T11:34:04;2.97;;;2.35;;
37517;SDS011;23366;52.498;13.446;2023-06-26T11:36:32;3.45;;;2.20;;
37517;SDS011;23366;52.498;13.446;2023-06-26T11:38:59;2.38;;;1.88;;
37517;SDS011;23366;52.498;13.446;2023-06-26T11:41:29;2.83;;;1.67;;
37517;SDS011;23366;52.498;13.446;2023-06-26T11:44:02;3.13;;;1.73;;
37517;SDS011;23366;52.498;13.446;2023-06-26T11:46:33;2.50;;;2.13;;
37517;SDS011;23366;52.498;13.446;2023-06-26T11:48:59;2.53;;;2.17;;
37517;SDS011;23366;52.498;13.446;2023-06-26T11:51:27;3.22;;;2.70;;
37517;SDS011;23366;52.498;13.446;2023-06-26T11:53:53;3.78;;;2.58;;
37517;SDS011;23366;52.498;13.446;2023-06-26T11:56:19;3.85;;;3.10;;
37517;SDS011;23366;52.498;13.446;2023-06-26T12:01:22;2.95;;;2.40;;
37517;SDS011;23366;52.498;13.446;2023-06-26T12:03:49;3.17;;;2.53;;
37517;SDS011;23366;52.498;13.446;2023-06-26T12:06:15;3.88;;;2.53;;
37517;SDS011;23366;52.498;13.446;2023-06-26T12:08:41;2.55;;;2.13;;
37517;SDS011;23366;52.498;13.446;2023-06-26T12:11:08;2.97;;;2.38;;
37517;SDS011;23366;52.498;13.446;2023-06-26T12:13:34;2.70;;;2.38;;
37517;SDS011;23366;52.498;13.446;2023-06-26T12:16:05;2.92;;;2.25;;
37517;SDS011;23366;52.498;13.446;2023-06-26T12:18:34;5.90;;;2.40;;
37517;SDS011;23366;52.498;13.446;2023-06-26T12:21:00;6.50;;;3.00;;
37517;SDS011;23366;52.498;13.446;2023-06-26T12:23:32;4.03;;;3.28;;
37517;SDS011;23366;52.498;13.446;2023-06-26T12:25:58;7.30;;;2.63;;
37517;SDS011;23366;52.498;13.446;2023-06-26T12:28:24;3.08;;;2.50;;
37517;SDS011;23366;52.498;13.446;2023-06-26T12:33:44;3.85;;;2.75;;
37517;SDS011;23366;52.498;13.446;2023-06-26T12:36:10;3.50;;;2.67;;
37517;SDS011;23366;52.498;13.446;2023-06-26T12:38:39;6.80;;;3.03;;
37517;SDS011;23366;52.498;13.446;2023-06-26T12:41:12;2.67;;;2.30;;
37517;SDS011;23366;52.498;13.446;2023-06-26T12:43:41;3.92;;;2.75;;
37517;SDS011;23366;52.498;13.446;2023-06-26T12:46:08;3.00;;;2.20;;
37517;SDS011;23366;52.498;13.446;2023-06-26T12:48:40;5.53;;;2.40;;
37517;SDS011;23366;52.498;13.446;2023-06-26T12:51:11;3.45;;;2.50;;
37517;SDS011;23366;52.498;13.446;2023-06-26T12:53:38;4.22;;;2.95;;
37517;SDS011;23366;52.498;13.446;2023-06-26T12:56:07;3.17;;;2.55;;
37517;SDS011;23366;52.498;13.446;2023-06-26T12:58:33;5.45;;;3.17;;
37517;SDS011;23366;52.498;13.446;2023-06-26T13:01:01;4.05;;;2.85;;
37517;SDS011;23366;52.498;13.446;2023-06-26T13:03:35;4.25;;;2.88;;
37517;SDS011;23366;52.498;13.446;2023-06-26T13:06:02;4.32;;;2.65;;
37517;SDS011;23366;52.498;13.446;2023-06-26T13:08:27;3.88;;;2.65;;
37517;SDS011;23366;52.498;13.446;2023-06-26T13:10:54;5.72;;;3.88;;
37517;SDS011;23366;52.498;13.446;2023-06-26T13:13:19;4.18;;;3.40;;
37517;SDS011;23366;52.498;13.446;2023-06-26T13:15:44;3.92;;;2.90;;
37517;SDS011;23366;52.498;13.446;2023-06-26T13:18:10;4.70;;;3.10;;
37517;SDS011;23366;52.498;13.446;2023-06-26T13:20:35;4.13;;;3.53;;
37517;SDS011;23366;52.498;13.446;2023-06-26T13:23:01;4.20;;;2.78;;
37517;SDS011;23366;52.498;13.446;2023-06-26T13:25:26;3.78;;;2.75;;
37517;SDS011;23366;52.498;13.446;2023-06-26T13:27:52;2.65;;;2.38;;
37517;SDS011;23366;52.498;13.446;2023-06-26T13:30:17;5.47;;;3.50;;
37517;SDS011;23366;52.498;13.446;2023-06-26T13:32:43;3.92;;;3.45;;
37517;SDS011;23366;52.498;13.446;2023-06-26T13:35:08;3.55;;;2.83;;
37517;SDS011;23366;52.498;13.446;2023-06-26T13:37:34;3.13;;;2.70;;
37517;SDS011;23366;52.498;13.446;2023-06-26T13:40:00;3.75;;;2.95;;
37517;SDS011;23366;52.498;13.446;2023-06-26T13:42:27;4.75;;;3.08;;
37517;SDS011;23366;52.498;13.446;2023-06-26T13:44:53;4.07;;;3.35;;
37517;SDS011;23366;52.498;13.446;2023-06-26T13:47:18;4.35;;;3.33;;
37517;SDS011;23366;52.498;13.446;2023-06-26T13:49:44;3.97;;;3.20;;
37517;SDS011;23366;52.498;13.446;2023-06-26T13:52:15;9.15;;;3.17;;
37517;SDS011;23366;52.498;13.446;2023-06-26T13:54:41;5.30;;;3.58;;
37517;SDS011;23366;52.498;13.446;2023-06-26T13:57:07;5.35;;;3.80;;
37517;SDS011;23366;52.498;13.446;2023-06-26T13:59:32;3.40;;;3.08;;
37517;SDS011;23366;52.498;13.446;2023-06-26T14:01:58;4.47;;;3.05;;
37517;SDS011;23366;52.498;13.446;2023-06-26T14:04:24;4.80;;;3.47;;
37517;SDS011;23366;52.498;13.446;2023-06-26T14:06:50;5.20;;;3.75;;
37517;SDS011;23366;52.498;13.446;2023-06-26T14:09:16;3.90;;;2.70;;
37517;SDS011;23366;52.498;13.446;2023-06-26T14:11:43;4.90;;;2.90;;
37517;SDS011;23366;52.498;13.446;2023-06-26T14:14:08;5.32;;;3.15;;
37517;SDS011;23366;52.498;13.446;2023-06-26T14:16:34;4.97;;;3.00;;
37517;SDS011;23366;52.498;13.446;2023-06-26T14:18:59;5.13;;;3.50;;
37517;SDS011;23366;52.498;13.446;2023-06-26T14:21:25;4.40;;;2.83;;
37517;SDS011;23366;52.498;13.446;2023-06-26T14:23:52;5.95;;;3.40;;
37517;SDS011;23366;52.498;13.446;2023-06-26T14:26:18;5.68;;;3.15;;
37517;SDS011;23366;52.498;13.446;2023-06-26T14:28:43;4.88;;;3.25;;
37517;SDS011;23366;52.498;13.446;2023-06-26T14:31:10;9.35;;;2.67;;
37517;SDS011;23366;52.498;13.446;2023-06-26T14:33:35;4.53;;;2.90;;
37517;SDS011;23366;52.498;13.446;2023-06-26T14:36:00;6.00;;;2.83;;
37517;SDS011;23366;52.498;13.446;2023-06-26T14:38:26;6.63;;;3.10;;
37517;SDS011;23366;52.498;13.446;2023-06-26T14:40:51;9.80;;;2.20;;
37517;SDS011;23366;52.498;13.446;2023-06-26T14:43:17;5.93;;;2.83;;
37517;SDS011;23366;52.498;13.446;2023-06-26T14:45:42;5.53;;;2.85;;
37517;SDS011;23366;52.498;13.446;2023-06-26T14:48:08;6.30;;;2.38;;
37517;SDS011;23366;52.498;13.446;2023-06-26T14:50:33;5.65;;;2.53;;
37517;SDS011;23366;52.498;13.446;2023-06-26T14:52:59;6.30;;;3.00;;